Terminal Aerodrome Forecast
Issued by NWS Paducah, KY

Home | Current Version | Previous Version | Text Only | Print | Product List | Glossary On
Versions: 1 2 3 4 5 6 7 8 9 10 11 12 13 14 15
000
FTUS43 KPAH 210500
TAFEVV
TAF
KEVV 210520Z 2106/2206 31004KT P6SM SKC
     FM210900 35004KT P6SM SCT060
     FM211600 34007KT P6SM SCT050
     FM220000 02003KT P6SM SCT040=

USA.gov is the U.S. government's official web portal to all federal, state and local government web resources and services.